createdAt,value
2022-11-25T00:01:18.571Z,12.23
2022-11-25T00:03:46.338Z,10.77
2022-11-25T00:06:22.772Z,11.43
2022-11-25T00:08:51.618Z,9.43
2022-11-25T00:11:18.449Z,8.43
2022-11-25T00:13:46.410Z,7.35
2022-11-25T00:16:16.049Z,9.30
2022-11-25T00:18:50.731Z,7.78
2022-11-25T00:21:19.827Z,8.93
2022-11-25T00:23:52.465Z,8.18
2022-11-25T00:26:19.505Z,7.28
2022-11-25T00:28:47.127Z,7.88
2022-11-25T00:31:19.745Z,7.93
2022-11-25T00:33:47.088Z,7.90
2022-11-25T00:36:22.434Z,7.78
2022-11-25T00:38:53.867Z,8.60
2022-11-25T00:41:39.394Z,8.77
2022-11-25T00:44:24.495Z,6.82
2022-11-25T00:46:51.003Z,7.93
2022-11-25T00:49:17.361Z,7.78
2022-11-25T00:51:43.765Z,7.93
2022-11-25T00:54:10.305Z,7.25
2022-11-25T00:56:36.659Z,7.47
2022-11-25T00:59:03.513Z,7.97
2022-11-25T01:01:30.156Z,7.68
2022-11-25T01:03:56.759Z,6.97
2022-11-25T01:06:23.414Z,7.25
2022-11-25T01:08:50.522Z,7.93
2022-11-25T01:11:18.952Z,8.33
2022-11-25T01:13:45.888Z,8.10
2022-11-25T01:16:15.878Z,8.07
2022-11-25T01:18:43.124Z,8.20
2022-11-25T01:21:16.129Z,8.48
2022-11-25T01:23:43.371Z,8.98
2022-11-25T01:26:14.830Z,8.05
2022-11-25T01:28:41.717Z,6.93
2022-11-25T01:31:14.619Z,9.15
2022-11-25T01:33:41.549Z,8.50
2022-11-25T01:36:11.889Z,8.77
2022-11-25T01:38:38.712Z,8.95
2022-11-25T01:41:07.625Z,9.63
2022-11-25T01:43:34.654Z,7.78
2022-11-25T01:46:25.635Z,9.80
2022-11-25T01:48:58.785Z,8.57
2022-11-25T01:51:40.509Z,11.02
2022-11-25T01:54:10.842Z,11.60
2022-11-25T01:56:43.697Z,9.15
2022-11-25T01:59:10.709Z,7.78
2022-11-25T02:01:37.152Z,8.77
2022-11-25T02:04:04.327Z,8.95
2022-11-25T02:06:40.533Z,11.93
2022-11-25T02:09:08.723Z,8.13
2022-11-25T02:11:38.785Z,8.00
2022-11-25T02:14:07.003Z,11.40
2022-11-25T02:16:33.542Z,10.80
2022-11-25T02:19:00.098Z,9.23
2022-11-25T02:21:42.029Z,8.32
2022-11-25T02:24:28.811Z,8.27
2022-11-25T02:26:55.534Z,7.25
2022-11-25T02:29:22.546Z,7.45
2022-11-25T02:31:51.332Z,8.10
2022-11-25T02:34:17.735Z,7.93
2022-11-25T02:36:44.223Z,8.07
2022-11-25T02:39:11.936Z,7.33
2022-11-25T02:41:57.768Z,8.07
2022-11-25T02:44:24.728Z,7.30
2022-11-25T02:46:51.268Z,7.63
2022-11-25T02:49:17.636Z,7.90
2022-11-25T02:51:45.736Z,8.70
2022-11-25T02:54:16.414Z,8.77
2022-11-25T02:56:43.520Z,8.45
2022-11-25T02:59:10.741Z,8.90
2022-11-25T03:01:38.683Z,8.07
2022-11-25T03:04:05.940Z,10.00
2022-11-25T03:06:32.822Z,7.80
2022-11-25T03:08:59.650Z,7.97
2022-11-25T03:11:46.188Z,8.82
2022-11-25T03:14:12.756Z,8.48
2022-11-25T03:16:39.341Z,7.97
2022-11-25T03:19:06.111Z,7.72
2022-11-25T03:21:32.616Z,7.70
2022-11-25T03:23:59.134Z,8.88
2022-11-25T03:26:26.265Z,7.47
2022-11-25T03:28:53.012Z,7.93
2022-11-25T03:31:19.743Z,7.57
2022-11-25T03:33:46.275Z,7.97
2022-11-25T03:36:12.710Z,8.80
2022-11-25T03:38:39.061Z,7.13
2022-11-25T03:41:05.814Z,7.20
2022-11-25T03:43:33.158Z,8.02
2022-11-25T03:45:59.698Z,6.70
2022-11-25T03:48:26.085Z,6.90
2022-11-25T03:50:52.577Z,6.10
2022-11-25T03:53:19.016Z,6.22
2022-11-25T03:55:47.924Z,7.28
2022-11-25T03:58:14.429Z,5.93
2022-11-25T04:00:40.935Z,7.22
2022-11-25T04:03:07.427Z,8.05
2022-11-25T04:05:33.921Z,8.73
2022-11-25T04:08:00.454Z,10.35
2022-11-25T04:10:26.866Z,8.77
2022-11-25T04:12:54.365Z,7.93
2022-11-25T04:15:21.701Z,8.52
2022-11-25T04:17:48.204Z,7.03
2022-11-25T04:20:15.470Z,8.43
2022-11-25T04:22:42.031Z,7.57
2022-11-25T04:25:09.309Z,7.15
2022-11-25T04:27:35.995Z,8.10
2022-11-25T04:30:02.516Z,6.83
2022-11-25T04:32:28.857Z,8.38
2022-11-25T04:34:55.395Z,7.47
2022-11-25T04:37:21.954Z,8.98
2022-11-25T04:39:48.302Z,9.30
2022-11-25T04:42:32.852Z,9.88
2022-11-25T04:45:22.101Z,7.10
2022-11-25T04:47:47.335Z,7.75
2022-11-25T04:50:19.964Z,9.27
2022-11-25T04:52:46.470Z,7.30
2022-11-25T04:55:13.069Z,7.72
2022-11-25T04:57:39.627Z,7.32
2022-11-25T05:00:07.593Z,7.43
2022-11-25T05:02:34.155Z,7.13
2022-11-25T05:05:00.998Z,7.35
2022-11-25T05:07:28.646Z,6.88
2022-11-25T05:09:55.241Z,7.90
2022-11-25T05:12:24.706Z,12.07
2022-11-25T05:14:51.438Z,10.30
2022-11-25T05:17:20.622Z,12.10
2022-11-25T05:19:47.813Z,11.07
2022-11-25T05:22:16.344Z,14.00
2022-11-25T05:24:42.855Z,10.80
2022-11-25T05:27:10.077Z,11.95
2022-11-25T05:29:37.305Z,10.63
2022-11-25T05:32:05.116Z,8.63
2022-11-25T05:34:31.665Z,11.82
2022-11-25T05:36:58.735Z,9.10
2022-11-25T05:39:25.477Z,10.15
2022-11-25T05:41:52.047Z,12.45
2022-11-25T05:44:22.820Z,11.52
2022-11-25T05:46:49.735Z,10.70
2022-11-25T05:49:17.226Z,10.63
2022-11-25T05:51:43.921Z,11.02
2022-11-25T05:54:10.489Z,14.80
2022-11-25T05:56:36.973Z,11.45
2022-11-25T05:59:04.183Z,8.95
2022-11-25T06:01:30.968Z,13.30
2022-11-25T06:04:02.161Z,14.05
2022-11-25T06:06:28.754Z,13.32
2022-11-25T06:08:55.250Z,16.50
2022-11-25T06:11:22.282Z,17.67
2022-11-25T06:13:48.772Z,15.85
2022-11-25T06:16:17.972Z,16.02
2022-11-25T06:18:44.687Z,19.15
2022-11-25T06:21:11.737Z,14.63
2022-11-25T06:23:39.297Z,13.93
2022-11-25T06:26:07.579Z,10.25
2022-11-25T06:28:34.194Z,17.73
2022-11-25T06:31:13.362Z,19.88
2022-11-25T06:33:40.531Z,15.37
2022-11-25T06:36:08.702Z,19.08
2022-11-25T06:38:35.501Z,14.85
2022-11-25T06:41:03.978Z,9.65
2022-11-25T06:43:31.219Z,14.85
2022-11-25T06:46:12.933Z,13.23
2022-11-25T06:48:40.140Z,13.05
2022-11-25T06:51:11.227Z,17.60
2022-11-25T06:53:38.872Z,13.15
2022-11-25T06:56:07.650Z,8.13
2022-11-25T06:58:36.690Z,9.93
2022-11-25T07:01:06.418Z,13.75
2022-11-25T07:03:32.929Z,13.27
2022-11-25T07:06:00.720Z,14.25
2022-11-25T07:08:33.541Z,14.40
2022-11-25T07:11:10.573Z,12.53
2022-11-25T07:13:36.977Z,9.80
2022-11-25T07:16:06.073Z,16.23
2022-11-25T07:18:34.881Z,14.50
2022-11-25T07:21:03.390Z,12.60
2022-11-25T07:23:29.807Z,11.55
2022-11-25T07:26:00.891Z,15.10
2022-11-25T07:28:28.032Z,10.73
2022-11-25T07:31:22.878Z,9.48
2022-11-25T07:33:40.900Z,10.13
2022-11-25T07:36:09.504Z,8.85
2022-11-25T07:38:36.620Z,9.80
2022-11-25T07:41:23.642Z,9.40
2022-11-25T07:43:52.672Z,9.82
2022-11-25T07:46:26.804Z,8.38
2022-11-25T07:48:56.553Z,9.82
2022-11-25T07:51:47.495Z,8.52
2022-11-25T07:54:14.508Z,9.18
2022-11-25T07:56:42.854Z,8.80
2022-11-25T07:59:13.309Z,10.07
2022-11-25T08:01:40.820Z,7.57
2022-11-25T08:04:09.139Z,7.28
2022-11-25T08:06:39.570Z,7.18
2022-11-25T08:09:06.694Z,8.45
2022-11-25T08:11:33.381Z,9.60
2022-11-25T08:14:00.046Z,10.27
2022-11-25T08:16:28.645Z,9.45
2022-11-25T08:18:56.108Z,10.85
2022-11-25T08:21:22.800Z,11.00
2022-11-25T08:23:49.220Z,11.32
2022-11-25T08:26:21.224Z,9.93
2022-11-25T08:28:48.010Z,9.82
2022-11-25T08:31:18.476Z,9.70
2022-11-25T08:33:45.416Z,10.80
2022-11-25T08:36:12.709Z,10.57
2022-11-25T08:38:40.462Z,11.52
2022-11-25T08:41:28.883Z,9.20
2022-11-25T08:43:56.293Z,9.82
2022-11-25T08:46:26.694Z,8.50
2022-11-25T08:48:54.344Z,9.85
2022-11-25T08:51:25.164Z,10.30
2022-11-25T08:53:52.427Z,9.50
2022-11-25T08:56:26.054Z,8.68
2022-11-25T08:58:54.009Z,9.07
2022-11-25T09:01:21.509Z,12.23
2022-11-25T09:03:50.594Z,8.93
2022-11-25T09:06:18.379Z,8.45
2022-11-25T09:08:45.565Z,8.25
2022-11-25T09:11:13.052Z,25.00
2022-11-25T09:13:39.787Z,16.17
2022-11-25T09:16:07.198Z,10.40
2022-11-25T09:18:35.449Z,11.48
2022-11-25T09:21:10.933Z,9.60
2022-11-25T09:23:39.360Z,10.60
2022-11-25T09:26:07.315Z,10.48
2022-11-25T09:28:34.722Z,9.50
2022-11-25T09:31:07.389Z,10.02
2022-11-25T09:33:34.000Z,10.15
2022-11-25T09:36:01.641Z,10.20
2022-11-25T09:38:28.146Z,8.65
2022-11-25T09:41:16.490Z,9.63
2022-11-25T09:44:37.236Z,9.30
2022-11-25T09:47:20.792Z,9.05
2022-11-25T09:50:12.962Z,7.50
2022-11-25T09:52:56.277Z,7.93
2022-11-25T09:55:25.750Z,7.07
2022-11-25T09:57:59.665Z,7.40
2022-11-25T10:00:33.860Z,7.50
2022-11-25T10:03:27.963Z,7.38
2022-11-25T10:06:03.460Z,7.93
2022-11-25T10:08:39.986Z,7.50
2022-11-25T10:11:22.701Z,8.02
2022-11-25T10:13:53.022Z,7.18
2022-11-25T10:16:41.215Z,6.65
2022-11-25T10:19:19.932Z,7.07
2022-11-25T10:21:46.786Z,6.77
2022-11-25T10:24:17.434Z,7.22
2022-11-25T10:26:47.786Z,6.97
2022-11-25T10:29:14.057Z,7.60
2022-11-25T10:31:43.740Z,7.35
2022-11-25T10:34:15.060Z,7.97
2022-11-25T10:36:43.367Z,7.57
2022-11-25T10:39:28.076Z,7.65
2022-11-25T10:42:07.224Z,8.23
2022-11-25T10:44:40.300Z,34.22
2022-11-25T10:47:33.184Z,8.53
2022-11-25T10:50:21.563Z,7.50
2022-11-25T10:52:55.938Z,8.27
2022-11-25T10:55:26.336Z,8.00
2022-11-25T10:57:54.247Z,8.43
2022-11-25T11:00:37.624Z,8.23
2022-11-25T11:03:26.696Z,8.65
2022-11-25T11:05:54.613Z,9.10
2022-11-25T11:08:28.800Z,7.40
2022-11-25T11:11:16.755Z,9.20
2022-11-25T11:13:44.242Z,7.97
2022-11-25T11:16:25.034Z,7.90
2022-11-25T11:18:51.726Z,7.95
2022-11-25T11:21:22.976Z,8.45
2022-11-25T11:23:54.681Z,8.00
2022-11-25T11:26:24.964Z,7.53
2022-11-25T11:29:16.998Z,8.10
2022-11-25T11:31:58.297Z,6.80
2022-11-25T11:34:43.194Z,25.42
2022-11-25T11:37:15.733Z,8.70
2022-11-25T11:40:03.763Z,6.43
2022-11-25T11:42:56.254Z,6.43
2022-11-25T11:45:25.591Z,5.90
2022-11-25T11:48:16.111Z,6.63
2022-11-25T11:50:47.463Z,6.25
2022-11-25T11:53:51.719Z,6.33
2022-11-25T11:56:41.348Z,6.20
2022-11-25T11:59:35.597Z,5.97
2022-11-25T12:02:16.729Z,5.80
2022-11-25T12:04:58.014Z,4.90
2022-11-25T12:07:29.916Z,5.53
2022-11-25T12:10:10.089Z,5.40
2022-11-25T12:12:40.869Z,5.57
2022-11-25T12:15:19.246Z,5.47
2022-11-25T12:17:54.663Z,6.70
2022-11-25T12:20:38.905Z,6.63
2022-11-25T12:23:29.791Z,4.97
2022-11-25T12:26:02.812Z,6.90
2022-11-25T12:28:45.565Z,12.80
2022-11-25T12:31:16.538Z,5.43
2022-11-25T12:34:14.168Z,7.30
2022-11-25T12:36:45.655Z,5.50
2022-11-25T12:39:28.305Z,5.15
2022-11-25T12:42:12.432Z,5.05
2022-11-25T12:44:51.614Z,5.45
2022-11-25T12:47:18.160Z,4.87
2022-11-25T12:49:49.174Z,5.22
2022-11-25T12:52:43.528Z,5.30
2022-11-25T12:55:29.131Z,4.88
2022-11-25T12:58:15.160Z,5.50
2022-11-25T13:01:02.241Z,5.50
2022-11-25T13:03:34.861Z,5.35
2022-11-25T13:06:22.654Z,5.72
2022-11-25T13:09:03.792Z,5.30
2022-11-25T13:12:12.985Z,4.80
2022-11-25T13:15:08.701Z,7.47
2022-11-25T13:17:40.943Z,8.18
2022-11-25T13:20:29.233Z,6.68
2022-11-25T13:23:04.777Z,6.57
2022-11-25T13:25:32.902Z,6.07
2022-11-25T13:28:03.552Z,6.27
2022-11-25T13:30:32.956Z,5.72
2022-11-25T13:33:11.951Z,5.88
2022-11-25T13:35:53.602Z,5.82
2022-11-25T13:38:29.078Z,5.43
2022-11-25T13:41:00.193Z,5.97
2022-11-25T13:43:26.938Z,6.10
2022-11-25T13:45:54.919Z,4.85
2022-11-25T13:48:26.759Z,6.78
2022-11-25T13:51:21.394Z,5.68
2022-11-25T13:53:57.830Z,6.50
2022-11-25T13:56:34.085Z,8.27
2022-11-25T13:59:13.852Z,7.35
2022-11-25T14:01:52.141Z,6.05
2022-11-25T14:04:34.916Z,7.00
2022-11-25T14:07:22.808Z,7.77
2022-11-25T14:09:52.590Z,6.38
2022-11-25T14:12:40.713Z,6.90
2022-11-25T14:15:35.041Z,9.00
2022-11-25T14:18:09.238Z,8.05
2022-11-25T14:20:51.627Z,6.70
2022-11-25T14:23:46.640Z,6.55
2022-11-25T14:26:48.736Z,8.10
2022-11-25T14:29:33.694Z,9.27
2022-11-25T14:32:13.245Z,8.45
2022-11-25T14:34:47.529Z,7.43
2022-11-25T14:37:23.703Z,7.50
2022-11-25T14:40:04.047Z,10.32
2022-11-25T14:42:37.806Z,9.30
2022-11-25T14:45:20.412Z,9.23
2022-11-25T14:47:46.779Z,9.23
2022-11-25T14:53:06.859Z,9.32
2022-11-25T14:55:33.347Z,9.77
2022-11-25T14:57:59.967Z,8.80
2022-11-25T15:00:27.021Z,8.60
2022-11-25T15:03:00.255Z,10.80
2022-11-25T15:05:34.348Z,10.93
2022-11-25T15:08:20.349Z,11.93
2022-11-25T15:10:54.805Z,11.50
2022-11-25T15:13:39.870Z,11.80
2022-11-25T15:16:18.411Z,9.43
2022-11-25T15:18:50.385Z,12.27
2022-11-25T15:21:20.830Z,10.82
2022-11-25T15:23:47.326Z,11.10
2022-11-25T15:26:22.761Z,9.47
2022-11-25T15:28:55.917Z,9.20
2022-11-25T15:31:27.126Z,11.48
2022-11-25T15:33:56.810Z,23.55
2022-11-25T15:36:24.862Z,29.38
2022-11-25T15:38:51.654Z,27.10
2022-11-25T15:41:29.576Z,17.52
2022-11-25T15:43:59.841Z,11.73
2022-11-25T15:46:27.524Z,11.75
2022-11-25T15:48:58.602Z,9.45
2022-11-25T15:51:55.235Z,9.37
2022-11-25T15:54:28.193Z,13.20
2022-11-25T15:57:02.676Z,13.60
2022-11-25T15:59:47.463Z,18.27
2022-11-25T16:02:35.817Z,14.55
2022-11-25T16:05:16.790Z,11.80
2022-11-25T16:07:52.534Z,13.73
2022-11-25T16:10:32.226Z,14.65
2022-11-25T16:13:23.601Z,14.65
2022-11-25T16:15:55.054Z,13.65
2022-11-25T16:18:40.397Z,13.60
2022-11-25T16:21:19.922Z,14.60
2022-11-25T16:23:50.845Z,16.48
2022-11-25T16:26:37.472Z,16.17
2022-11-25T16:29:16.206Z,14.77
2022-11-25T16:31:42.796Z,14.13
2022-11-25T16:34:20.590Z,12.63
2022-11-25T16:36:47.279Z,13.75
2022-11-25T16:39:13.886Z,25.45
2022-11-25T16:41:41.927Z,17.70
2022-11-25T16:44:21.332Z,47.80
2022-11-25T16:46:47.921Z,18.58
2022-11-25T16:49:16.283Z,13.98
2022-11-25T16:51:42.843Z,24.70
2022-11-25T16:54:09.280Z,27.20
2022-11-25T16:56:41.933Z,39.33
2022-11-25T16:59:18.367Z,43.20
2022-11-25T17:01:45.763Z,15.88
2022-11-25T17:04:13.901Z,22.50
2022-11-25T17:06:41.478Z,15.57
2022-11-25T17:09:08.630Z,16.47
2022-11-25T17:11:46.614Z,16.35
2022-11-25T17:14:28.213Z,14.48
2022-11-25T17:16:55.201Z,13.30
2022-11-25T17:19:21.884Z,15.63
2022-11-25T17:21:48.503Z,16.57
2022-11-25T17:24:21.512Z,16.05
2022-11-25T17:26:56.468Z,16.33
2022-11-25T17:29:31.952Z,20.73
2022-11-25T17:31:58.897Z,15.80
2022-11-25T17:34:25.480Z,17.30
2022-11-25T17:36:52.315Z,18.42
2022-11-25T17:39:18.896Z,18.05
2022-11-25T17:41:48.257Z,15.60
2022-11-25T17:44:27.869Z,13.77
2022-11-25T17:46:57.112Z,12.30
2022-11-25T17:49:23.955Z,12.63
2022-11-25T17:51:51.262Z,14.90
2022-11-25T17:54:18.051Z,13.65
2022-11-25T17:56:50.710Z,12.85
2022-11-25T17:59:25.174Z,13.10
2022-11-25T18:01:52.265Z,12.50
2022-11-25T18:04:23.732Z,13.68
2022-11-25T18:06:50.525Z,14.45
2022-11-25T18:09:17.538Z,12.98
2022-11-25T18:11:48.393Z,13.80
2022-11-25T18:14:21.544Z,14.30
2022-11-25T18:16:48.241Z,14.02
2022-11-25T18:19:14.622Z,13.52
2022-11-25T18:21:42.146Z,12.80
2022-11-25T18:24:08.675Z,14.87
2022-11-25T18:26:42.605Z,19.58
2022-11-25T18:29:15.773Z,13.45
2022-11-25T18:31:42.266Z,15.35
2022-11-25T18:34:14.721Z,14.95
2022-11-25T18:36:41.566Z,13.80
2022-11-25T18:39:08.076Z,13.90
2022-11-25T18:41:34.625Z,15.32
2022-11-25T18:44:02.067Z,25.73
2022-11-25T18:46:35.497Z,43.92
2022-11-25T18:49:02.008Z,33.17
2022-11-25T18:51:28.708Z,14.20
2022-11-25T18:53:55.065Z,12.73
2022-11-25T18:56:21.422Z,13.27
2022-11-25T18:58:51.230Z,11.93
2022-11-25T19:01:19.646Z,14.53
2022-11-25T19:03:46.145Z,12.93
2022-11-25T19:06:16.892Z,12.43
2022-11-25T19:08:43.268Z,13.27
2022-11-25T19:11:16.458Z,14.77
2022-11-25T19:13:48.561Z,16.07
2022-11-25T19:16:18.391Z,17.92
2022-11-25T19:18:48.241Z,18.67
2022-11-25T19:21:16.564Z,28.55
2022-11-25T19:23:43.813Z,20.13
2022-11-25T19:26:15.254Z,15.57
2022-11-25T19:28:45.269Z,14.43
2022-11-25T19:31:12.664Z,13.57
2022-11-25T19:33:43.698Z,14.73
2022-11-25T19:36:23.911Z,17.67
2022-11-25T19:38:50.846Z,16.00
2022-11-25T19:41:17.363Z,16.48
2022-11-25T19:43:44.001Z,14.02
2022-11-25T19:46:46.298Z,14.52
2022-11-25T19:49:19.924Z,13.70
2022-11-25T19:51:47.404Z,11.67
2022-11-25T19:54:17.988Z,13.07
2022-11-25T19:56:45.781Z,13.98
2022-11-25T19:59:12.306Z,14.05
2022-11-25T20:01:41.956Z,13.07
2022-11-25T20:04:16.563Z,16.40
2022-11-25T20:06:43.130Z,18.48
2022-11-25T20:09:12.025Z,17.23
2022-11-25T20:11:38.624Z,16.70
2022-11-25T20:14:05.477Z,16.08
2022-11-25T20:16:37.123Z,17.10
2022-11-25T20:19:04.854Z,17.63
2022-11-25T20:21:42.605Z,16.45
2022-11-25T20:24:18.896Z,17.23
2022-11-25T20:26:48.638Z,18.50
2022-11-25T20:29:23.509Z,16.23
2022-11-25T20:31:53.386Z,16.52
2022-11-25T20:34:19.770Z,14.73
2022-11-25T20:36:46.338Z,13.38
2022-11-25T20:39:18.416Z,14.10
2022-11-25T20:41:52.827Z,11.70
2022-11-25T20:44:20.910Z,12.13
2022-11-25T20:46:47.621Z,12.98
2022-11-25T20:49:21.874Z,15.82
2022-11-25T20:51:48.572Z,17.73
2022-11-25T20:54:15.106Z,16.10
2022-11-25T20:56:42.497Z,14.45
2022-11-25T20:59:22.848Z,13.23
2022-11-25T21:01:50.661Z,15.52
2022-11-25T21:04:18.239Z,13.20
2022-11-25T21:06:44.725Z,13.80
2022-11-25T21:09:19.116Z,13.57
2022-11-25T21:11:47.005Z,15.10
2022-11-25T21:14:15.644Z,14.85
2022-11-25T21:16:42.263Z,13.73
2022-11-25T21:19:08.829Z,14.83
2022-11-25T21:21:39.187Z,17.50
2022-11-25T21:24:23.747Z,20.08
2022-11-25T21:26:50.895Z,20.92
2022-11-25T21:29:18.115Z,26.73
2022-11-25T21:31:45.195Z,15.70
2022-11-25T21:34:13.577Z,14.18
2022-11-25T21:36:42.714Z,13.73
2022-11-25T21:39:23.422Z,14.10
2022-11-25T21:41:50.054Z,11.93
2022-11-25T21:44:26.093Z,12.93
2022-11-25T21:46:53.865Z,14.63
2022-11-25T21:49:20.628Z,14.30
2022-11-25T21:51:47.230Z,15.90
2022-11-25T21:54:13.864Z,14.20
2022-11-25T21:56:40.242Z,12.20
2022-11-25T21:59:08.305Z,11.77
2022-11-25T22:01:34.731Z,12.18
2022-11-25T22:04:01.206Z,11.77
2022-11-25T22:06:31.780Z,11.93
2022-11-25T22:08:58.298Z,11.30
2022-11-25T22:11:30.537Z,10.57
2022-11-25T22:13:57.655Z,11.02
2022-11-25T22:16:30.689Z,11.38
2022-11-25T22:18:57.958Z,10.32
2022-11-25T22:21:24.433Z,13.30
2022-11-25T22:23:51.164Z,12.20
2022-11-25T22:26:19.754Z,12.88
2022-11-25T22:28:50.371Z,11.00
2022-11-25T22:31:17.447Z,10.20
2022-11-25T22:33:43.977Z,11.30
2022-11-25T22:36:29.570Z,10.25
2022-11-25T22:38:59.102Z,10.50
2022-11-25T22:41:25.645Z,9.98
2022-11-25T22:43:52.695Z,10.85
2022-11-25T22:46:19.496Z,11.00
2022-11-25T22:48:46.150Z,10.43
2022-11-25T22:51:25.249Z,11.10
2022-11-25T22:53:51.616Z,10.98
2022-11-25T22:56:19.668Z,10.25
2022-11-25T22:58:46.756Z,11.07
2022-11-25T23:01:15.427Z,12.25
2022-11-25T23:03:43.320Z,10.77
2022-11-25T23:06:13.727Z,10.15
2022-11-25T23:08:40.096Z,9.30
2022-11-25T23:11:06.727Z,10.20
2022-11-25T23:13:33.251Z,10.15
2022-11-25T23:16:01.793Z,10.45
2022-11-25T23:18:43.023Z,11.20
2022-11-25T23:21:22.781Z,11.07
2022-11-25T23:23:50.420Z,11.53
2022-11-25T23:26:17.120Z,13.40
2022-11-25T23:28:43.889Z,13.18
2022-11-25T23:31:13.678Z,11.82
2022-11-25T23:33:50.728Z,10.98
2022-11-25T23:36:27.080Z,11.83
2022-11-25T23:38:57.054Z,12.07
2022-11-25T23:41:26.838Z,11.27
2022-11-25T23:43:54.043Z,13.23
2022-11-25T23:46:28.443Z,12.75
2022-11-25T23:48:57.465Z,11.57
2022-11-25T23:51:25.352Z,11.18
2022-11-25T23:53:52.457Z,11.05
2022-11-25T23:56:19.310Z,10.55
2022-11-25T23:58:46.026Z,10.95
